createdAt,value
2019-03-13T00:02:26.742Z,56.33
2019-03-13T00:05:12.757Z,57.29
2019-03-13T00:07:38.693Z,56.72
2019-03-13T00:10:46.191Z,56.77
2019-03-13T00:13:32.013Z,56.60
2019-03-13T00:15:57.817Z,57.31
2019-03-13T00:18:23.625Z,57.49
2019-03-13T00:20:49.483Z,56.65
2019-03-13T00:23:15.396Z,57.39
2019-03-13T00:25:41.236Z,57.09
2019-03-13T00:28:07.046Z,57.40
2019-03-13T00:30:32.858Z,58.83
2019-03-13T00:32:58.680Z,58.19
2019-03-13T00:35:24.520Z,58.11
2019-03-13T00:38:10.335Z,58.56
2019-03-13T00:40:36.168Z,58.97
2019-03-13T00:43:01.976Z,58.41
2019-03-13T00:45:27.814Z,57.94
2019-03-13T00:47:53.635Z,57.83
2019-03-13T00:51:01.110Z,58.37
2019-03-13T00:53:26.939Z,58.68
2019-03-13T00:55:52.898Z,59.02
2019-03-13T00:58:19.098Z,60.80
2019-03-13T01:08:48.020Z,64.28
2019-03-13T01:11:13.841Z,66.74
2019-03-13T01:13:39.678Z,70.21
2019-03-13T01:16:05.492Z,71.66
2019-03-13T01:18:31.322Z,73.54
2019-03-13T01:20:57.147Z,74.08
2019-03-13T01:23:22.982Z,75.47
2019-03-13T01:25:48.790Z,76.86
2019-03-13T01:28:14.618Z,79.29
2019-03-13T01:31:00.300Z,79.30
2019-03-13T01:38:40.561Z,82.94
2019-03-13T01:41:06.397Z,81.09
2019-03-13T01:43:32.228Z,81.03
2019-03-13T01:45:58.028Z,80.83
2019-03-13T01:48:23.852Z,79.68
2019-03-13T01:50:49.649Z,82.27
2019-03-13T01:53:15.507Z,81.78
2019-03-13T01:55:41.330Z,83.29
2019-03-13T01:58:07.145Z,83.02
2019-03-13T02:00:33.086Z,85.17
2019-03-13T02:02:58.900Z,86.33
2019-03-13T02:05:24.736Z,87.08
2019-03-13T02:07:50.542Z,87.25
2019-03-13T02:10:16.380Z,88.82
2019-03-13T02:12:42.198Z,89.66
2019-03-13T02:15:27.919Z,88.55
2019-03-13T02:17:53.741Z,87.82
2019-03-13T02:20:19.607Z,88.45
2019-03-13T02:22:45.429Z,87.93
2019-03-13T02:28:11.674Z,86.66
2019-03-13T02:30:37.527Z,83.47
2019-03-13T02:33:03.362Z,82.35
2019-03-13T02:35:29.192Z,78.80
2019-03-13T02:37:55.001Z,78.68
2019-03-13T02:40:20.880Z,77.35
2019-03-13T02:42:46.704Z,78.75
2019-03-13T02:45:54.192Z,78.93
2019-03-13T02:48:20.104Z,78.83
2019-03-13T02:50:45.952Z,83.48
2019-03-13T02:53:11.784Z,85.84
2019-03-13T02:55:37.571Z,87.07
2019-03-13T02:58:03.418Z,89.10
2019-03-13T03:00:49.121Z,88.51
2019-03-13T03:06:08.975Z,86.72
2019-03-13T03:08:34.798Z,86.85
2019-03-13T03:11:00.604Z,93.85
2019-03-13T03:13:26.439Z,100.00
2019-03-13T03:15:52.277Z,100.00
2019-03-13T03:18:18.092Z,100.00
2019-03-13T03:20:43.911Z,100.00
2019-03-13T03:23:09.758Z,100.00
2019-03-13T03:25:35.565Z,100.00
2019-03-13T03:28:01.395Z,100.00
2019-03-13T03:30:27.225Z,100.00
2019-03-13T03:32:53.043Z,100.00
2019-03-13T03:35:18.899Z,100.00
2019-03-13T03:40:38.734Z,100.00
2019-03-13T03:43:04.557Z,100.00
2019-03-13T03:45:30.375Z,100.00
2019-03-13T03:47:56.235Z,100.00
2019-03-13T03:50:22.053Z,100.00
2019-03-13T03:52:47.867Z,99.85
2019-03-13T03:55:55.345Z,100.00
2019-03-13T03:58:21.171Z,100.00
2019-03-13T04:00:47.005Z,97.81
2019-03-13T04:03:12.848Z,93.80
2019-03-13T04:05:38.684Z,94.64
2019-03-13T04:08:04.508Z,93.44
2019-03-13T04:11:11.972Z,93.89
2019-03-13T04:13:37.811Z,93.27
2019-03-13T04:16:03.626Z,92.64
2019-03-13T04:18:29.464Z,90.77
2019-03-13T04:20:55.264Z,90.67
2019-03-13T04:23:21.088Z,91.17
2019-03-13T04:25:46.923Z,90.36
2019-03-13T04:28:12.749Z,90.16
2019-03-13T04:30:38.610Z,87.74
2019-03-13T04:33:04.510Z,88.40
2019-03-13T04:35:30.334Z,88.71
2019-03-13T04:37:56.159Z,87.75
2019-03-13T04:40:21.988Z,90.39
2019-03-13T04:42:47.836Z,93.92
2019-03-13T04:45:55.288Z,96.97
2019-03-13T04:48:21.122Z,98.15
2019-03-13T04:50:46.942Z,99.14
2019-03-13T04:53:13.112Z,98.00
2019-03-13T04:55:38.936Z,95.42
2019-03-13T04:58:04.784Z,93.78
2019-03-13T05:00:30.613Z,92.44
2019-03-13T05:02:56.464Z,91.86
2019-03-13T05:05:42.957Z,90.58
2019-03-13T05:08:48.539Z,91.15
2019-03-13T05:11:14.355Z,89.46
2019-03-13T05:13:40.195Z,89.91
2019-03-13T05:16:06.024Z,90.19
2019-03-13T05:18:31.902Z,88.48
2019-03-13T05:20:57.736Z,87.58
2019-03-13T05:23:23.560Z,85.58
2019-03-13T05:25:49.411Z,87.05
2019-03-13T05:28:15.222Z,85.67
2019-03-13T05:30:41.051Z,85.71
2019-03-13T05:33:06.885Z,85.40
2019-03-13T05:35:32.706Z,85.30
2019-03-13T05:37:58.539Z,85.16
2019-03-13T05:40:24.377Z,86.46
2019-03-13T05:42:50.187Z,86.47
2019-03-13T05:45:16.033Z,87.36
2019-03-13T05:47:41.870Z,88.03
2019-03-13T05:50:49.341Z,89.24
2019-03-13T05:53:15.173Z,89.52
2019-03-13T05:55:41.004Z,89.39
2019-03-13T05:58:06.844Z,89.90
2019-03-13T06:00:32.656Z,90.81
2019-03-13T06:02:58.512Z,91.14
2019-03-13T06:05:24.337Z,91.52
2019-03-13T06:07:50.165Z,92.14
2019-03-13T06:10:16.000Z,92.24
2019-03-13T06:12:41.821Z,92.61
2019-03-13T06:15:49.316Z,93.36
2019-03-13T06:18:15.145Z,93.24
2019-03-13T06:20:40.970Z,93.48
2019-03-13T06:23:06.825Z,95.73
2019-03-13T06:25:32.630Z,100.00
2019-03-13T06:27:58.453Z,100.00
2019-03-13T06:30:24.353Z,100.00
2019-03-13T06:32:50.271Z,100.00
2019-03-13T06:35:16.073Z,100.00
2019-03-13T06:38:23.567Z,100.00
2019-03-13T06:40:49.389Z,100.00
2019-03-13T06:43:15.588Z,100.00
2019-03-13T06:45:41.419Z,100.00
2019-03-13T06:48:07.232Z,100.00
2019-03-13T06:50:33.087Z,100.00
2019-03-13T06:52:58.900Z,100.00
2019-03-13T06:55:24.726Z,100.00
2019-03-13T06:57:50.543Z,100.00
2019-03-13T07:03:30.137Z,100.00
2019-03-13T07:06:15.835Z,100.00
2019-03-13T07:11:48.875Z,100.00
2019-03-13T07:14:34.590Z,100.00
2019-03-13T07:17:20.309Z,100.00
2019-03-13T07:22:53.383Z,100.00
2019-03-13T07:25:39.099Z,100.00
2019-03-13T07:28:24.819Z,100.00
2019-03-13T07:31:10.522Z,100.00
2019-03-13T07:33:56.235Z,100.00
2019-03-13T07:36:42.005Z,100.00
2019-03-13T07:39:27.701Z,100.00
2019-03-13T07:42:13.408Z,100.00
2019-03-13T07:44:59.111Z,100.00
2019-03-13T07:47:44.817Z,100.00
2019-03-13T07:50:30.625Z,100.00
2019-03-13T07:53:16.347Z,100.00
2019-03-13T07:58:49.388Z,100.00
2019-03-13T08:01:35.098Z,100.00
2019-03-13T08:06:57.761Z,100.00
2019-03-13T08:12:20.514Z,100.00
2019-03-13T08:15:06.251Z,99.98
2019-03-13T08:17:51.959Z,97.90
2019-03-13T08:20:57.658Z,98.18
2019-03-13T08:31:31.408Z,97.14
2019-03-13T08:34:17.130Z,95.43
2019-03-13T08:39:50.185Z,92.02
2019-03-13T08:42:35.898Z,89.16
2019-03-13T08:48:15.762Z,89.30
2019-03-13T08:58:49.773Z,82.27
2019-03-13T09:01:35.492Z,82.36
2019-03-13T09:04:21.200Z,82.04
2019-03-13T09:07:06.916Z,81.37
2019-03-13T09:12:40.187Z,79.68
2019-03-13T09:15:47.645Z,75.50
2019-03-13T09:18:33.355Z,75.81
2019-03-13T09:21:19.051Z,76.49
2019-03-13T09:24:04.786Z,74.13
2019-03-13T09:26:50.492Z,73.05
2019-03-13T09:29:36.326Z,70.71
2019-03-13T09:32:22.197Z,69.85
2019-03-13T09:35:07.908Z,70.28
2019-03-13T09:37:53.634Z,71.25
2019-03-13T09:40:39.341Z,69.87
2019-03-13T09:48:35.697Z,68.36
2019-03-13T09:51:21.409Z,69.54
2019-03-13T09:54:07.134Z,68.01
2019-03-13T09:56:52.827Z,67.44
2019-03-13T09:59:43.159Z,67.10
2019-03-13T10:05:13.604Z,67.15
2019-03-13T10:07:59.301Z,67.28
2019-03-13T10:10:45.023Z,67.59
2019-03-13T10:13:30.721Z,66.53
2019-03-13T10:16:16.438Z,66.44
2019-03-13T10:19:02.142Z,65.73
2019-03-13T10:21:47.863Z,65.60
2019-03-13T10:24:33.572Z,67.18
2019-03-13T10:27:19.300Z,65.41
2019-03-13T10:30:05.027Z,66.34
2019-03-13T10:32:50.751Z,64.64
2019-03-13T10:35:36.575Z,63.46
2019-03-13T10:41:49.365Z,65.11
2019-03-13T10:44:35.115Z,65.11
2019-03-13T10:47:02.900Z,65.35
2019-03-13T10:49:36.607Z,67.72
2019-03-13T10:52:13.289Z,67.69
2019-03-13T10:54:41.054Z,66.50
2019-03-13T10:57:14.782Z,66.45
2019-03-13T10:59:45.428Z,68.14
2019-03-13T11:02:16.214Z,67.20
2019-03-13T11:04:52.802Z,66.98
2019-03-13T11:07:38.719Z,66.30
2019-03-13T11:10:09.690Z,66.40
2019-03-13T11:12:40.466Z,64.47
2019-03-13T11:15:12.777Z,65.87
2019-03-13T11:17:49.510Z,64.57
2019-03-13T11:20:17.275Z,65.01
2019-03-13T11:23:01.614Z,65.35
2019-03-13T11:25:29.378Z,65.44
2019-03-13T11:27:57.239Z,64.93
2019-03-13T11:30:25.052Z,65.21
2019-03-13T11:32:52.841Z,63.85
2019-03-13T11:35:35.728Z,65.61
2019-03-13T11:38:03.734Z,66.92
2019-03-13T11:40:34.309Z,66.54
2019-03-13T11:43:07.811Z,67.85
2019-03-13T11:45:52.135Z,67.75
2019-03-13T11:48:36.514Z,71.01
2019-03-13T11:51:13.193Z,70.18
2019-03-13T11:53:40.969Z,67.12
2019-03-13T11:56:11.255Z,62.87
2019-03-13T11:58:44.835Z,61.42
2019-03-13T12:01:12.596Z,60.13
2019-03-13T12:03:52.612Z,61.56
2019-03-13T12:06:20.407Z,62.69
2019-03-13T12:08:48.163Z,63.89
2019-03-13T12:11:31.265Z,63.67
2019-03-13T12:14:15.718Z,63.53
2019-03-13T12:16:46.315Z,63.30
2019-03-13T12:19:16.924Z,63.03
2019-03-13T12:21:47.581Z,63.92
2019-03-13T12:24:24.377Z,64.00
2019-03-13T12:27:08.790Z,63.98
2019-03-13T12:29:53.236Z,64.65
2019-03-13T12:32:23.763Z,64.76
2019-03-13T12:34:54.312Z,64.83
2019-03-13T12:37:22.101Z,65.05
2019-03-13T12:40:06.628Z,65.05
2019-03-13T12:42:43.483Z,65.27
2019-03-13T12:45:20.571Z,66.08
2019-03-13T12:47:51.309Z,66.11
2019-03-13T12:50:28.153Z,66.13
2019-03-13T12:52:55.970Z,64.57
2019-03-13T12:55:40.469Z,65.78
2019-03-13T12:58:20.298Z,65.78
2019-03-13T13:00:48.009Z,64.82
2019-03-13T13:03:30.890Z,64.92
2019-03-13T13:06:04.427Z,65.51
2019-03-13T13:08:35.181Z,65.89
2019-03-13T13:11:11.805Z,66.04
2019-03-13T13:13:42.626Z,65.06
2019-03-13T13:16:26.952Z,65.17
2019-03-13T13:18:53.185Z,62.53
2019-03-13T13:21:19.273Z,59.72
2019-03-13T13:23:45.160Z,58.46
2019-03-13T13:26:11.009Z,57.71
2019-03-13T13:28:36.879Z,55.70
2019-03-13T13:31:02.929Z,54.22
2019-03-13T13:33:28.835Z,55.02
2019-03-13T13:35:55.043Z,57.05
2019-03-13T13:38:20.909Z,56.02
2019-03-13T13:40:46.931Z,56.02
2019-03-13T13:43:12.906Z,54.11
2019-03-13T13:45:41.686Z,53.21
2019-03-13T13:48:08.286Z,51.14
2019-03-13T13:50:34.582Z,51.14
2019-03-13T13:53:00.460Z,49.48
2019-03-13T13:55:26.352Z,49.48
2019-03-13T13:57:52.187Z,48.73
2019-03-13T14:00:18.175Z,48.09
2019-03-13T14:02:44.011Z,49.52
2019-03-13T14:05:09.898Z,48.15
2019-03-13T14:07:35.790Z,50.26
2019-03-13T14:10:03.260Z,50.55
2019-03-13T14:12:29.130Z,52.40
2019-03-13T14:14:54.996Z,52.30
2019-03-13T14:17:20.911Z,52.19
2019-03-13T14:19:46.759Z,52.32
2019-03-13T14:22:12.655Z,52.58
2019-03-13T14:24:38.551Z,52.61
2019-03-13T14:27:13.863Z,51.99
2019-03-13T14:29:32.388Z,52.61
2019-03-13T14:31:58.392Z,53.11
2019-03-13T14:34:24.327Z,54.07
2019-03-13T14:36:50.276Z,53.96
2019-03-13T14:39:16.153Z,53.75
2019-03-13T14:41:42.301Z,54.71
2019-03-13T14:44:08.321Z,55.29
2019-03-13T14:46:34.559Z,56.79
2019-03-13T14:49:00.787Z,56.79
2019-03-13T14:51:26.950Z,56.10
2019-03-13T14:53:53.151Z,57.30
2019-03-13T14:56:32.062Z,57.08
2019-03-13T14:58:58.194Z,56.70
2019-03-13T15:01:27.268Z,54.98
2019-03-13T15:03:53.369Z,53.64
2019-03-13T15:06:19.596Z,55.90
2019-03-13T15:08:47.785Z,53.11
2019-03-13T15:11:13.930Z,53.39
2019-03-13T15:13:44.300Z,53.39
2019-03-13T15:16:10.569Z,53.09
2019-03-13T15:18:36.588Z,54.08
2019-03-13T15:21:04.785Z,56.05
2019-03-13T15:23:33.159Z,56.51
2019-03-13T15:25:59.129Z,56.24
2019-03-13T15:28:25.063Z,56.76
2019-03-13T15:30:51.301Z,58.24
2019-03-13T15:33:17.404Z,59.35
2019-03-13T15:35:43.292Z,59.35
2019-03-13T15:38:09.247Z,59.36
2019-03-13T15:40:35.203Z,59.86
2019-03-13T15:43:01.086Z,59.35
2019-03-13T15:45:30.748Z,60.21
2019-03-13T15:47:56.608Z,60.57
2019-03-13T15:50:22.576Z,60.72
2019-03-13T15:52:48.433Z,60.95
2019-03-13T15:55:18.027Z,61.08
2019-03-13T15:57:55.278Z,61.41
2019-03-13T16:00:24.261Z,61.64
2019-03-13T16:02:50.673Z,62.09
2019-03-13T16:05:16.863Z,61.96
2019-03-13T16:07:42.845Z,62.55
2019-03-13T16:10:20.659Z,63.20
2019-03-13T16:13:28.481Z,64.29
2019-03-13T16:15:32.720Z,67.64
2019-03-13T16:18:00.826Z,68.35
2019-03-13T16:31:45.016Z,72.18
2019-03-13T16:38:00.237Z,72.85
2019-03-13T16:39:39.926Z,72.20
2019-03-13T16:45:18.348Z,72.17
2019-03-13T16:48:27.669Z,71.45
2019-03-13T16:54:03.601Z,70.71
2019-03-13T17:08:02.391Z,69.79
2019-03-13T17:13:17.986Z,69.53
2019-03-13T17:18:51.554Z,69.13
2019-03-13T17:23:15.012Z,69.92
2019-03-13T17:24:11.835Z,69.27
2019-03-13T17:27:10.587Z,69.03
2019-03-13T17:29:45.302Z,69.46
2019-03-13T17:32:22.371Z,69.70
2019-03-13T17:34:53.553Z,69.94
2019-03-13T17:37:34.284Z,70.10
2019-03-13T17:40:05.539Z,70.27
2019-03-13T17:42:45.899Z,70.44
2019-03-13T17:48:16.300Z,70.80
2019-03-13T17:50:54.179Z,70.62
2019-03-13T17:53:47.456Z,71.22
2019-03-13T17:56:20.776Z,74.23
2019-03-13T17:59:03.051Z,78.24
2019-03-13T18:01:40.118Z,81.32
2019-03-13T18:12:50.102Z,96.26
2019-03-13T18:15:38.595Z,99.34
2019-03-13T18:17:56.360Z,100.00
2019-03-13T18:35:46.436Z,100.00
2019-03-13T18:38:24.384Z,100.00
2019-03-13T18:43:46.635Z,100.00
2019-03-13T18:46:12.465Z,100.00
2019-03-13T18:48:38.300Z,100.00
2019-03-13T18:51:04.163Z,100.00
2019-03-13T18:53:29.997Z,100.00
2019-03-13T18:55:55.831Z,100.00
2019-03-13T18:58:21.657Z,100.00
2019-03-13T19:00:47.518Z,100.00
2019-03-13T19:03:13.374Z,100.00
2019-03-13T19:05:39.231Z,100.00
2019-03-13T19:08:46.708Z,100.00
2019-03-13T19:11:12.556Z,100.00
2019-03-13T19:13:38.381Z,100.00
2019-03-13T19:16:04.246Z,100.00
2019-03-13T19:18:30.072Z,100.00
2019-03-13T19:20:58.486Z,100.00
2019-03-13T19:23:23.710Z,100.00
2019-03-13T19:25:49.536Z,100.00
2019-03-13T19:28:15.377Z,100.00
2019-03-13T19:30:41.225Z,100.00
2019-03-13T19:38:54.811Z,100.00
2019-03-13T19:41:20.721Z,100.00
2019-03-13T19:43:46.579Z,100.00
2019-03-13T19:46:12.423Z,100.00
2019-03-13T19:48:38.358Z,100.00
2019-03-13T19:51:04.249Z,100.00
2019-03-13T19:53:30.126Z,100.00
2019-03-13T19:55:56.323Z,100.00
2019-03-13T19:58:22.205Z,100.00
2019-03-13T20:00:48.091Z,100.00
2019-03-13T20:03:33.837Z,100.00
2019-03-13T20:05:59.722Z,100.00
2019-03-13T20:08:25.607Z,100.00
2019-03-13T20:10:51.506Z,100.00
2019-03-13T20:13:17.500Z,100.00
2019-03-13T20:15:45.330Z,100.00
2019-03-13T20:18:31.114Z,100.00
2019-03-13T20:20:56.966Z,100.00
2019-03-13T20:23:22.844Z,100.00
2019-03-13T20:26:08.695Z,100.00
2019-03-13T20:28:34.707Z,100.00
2019-03-13T20:31:00.624Z,100.00
2019-03-13T20:34:08.095Z,100.00
2019-03-13T20:36:53.896Z,100.00
2019-03-13T20:39:19.802Z,100.00
2019-03-13T20:42:25.490Z,100.00
2019-03-13T20:44:51.403Z,100.00
2019-03-13T20:47:17.700Z,100.00
2019-03-13T20:49:43.624Z,100.00
2019-03-13T20:52:09.495Z,100.00
2019-03-13T20:54:35.362Z,100.00
2019-03-13T20:57:01.245Z,100.00
2019-03-13T20:59:27.111Z,100.00
2019-03-13T21:01:52.984Z,100.00
2019-03-13T21:04:18.854Z,100.00
2019-03-13T21:06:44.687Z,100.00
2019-03-13T21:09:10.539Z,100.00
2019-03-13T21:11:36.419Z,100.00
2019-03-13T21:14:02.261Z,100.00
2019-03-13T21:16:28.095Z,100.00
2019-03-13T21:18:53.924Z,100.00
2019-03-13T21:21:19.775Z,100.00
2019-03-13T21:23:45.701Z,100.00
2019-03-13T21:26:18.877Z,100.00
2019-03-13T21:28:44.753Z,100.00
2019-03-13T21:31:10.612Z,100.00
2019-03-13T21:33:36.508Z,100.00
2019-03-13T21:36:02.385Z,100.00
2019-03-13T21:38:28.245Z,100.00
2019-03-13T21:40:54.084Z,100.00
2019-03-13T21:43:39.900Z,100.00
2019-03-13T21:46:06.908Z,100.00
2019-03-13T21:48:33.556Z,100.00
2019-03-13T21:50:59.621Z,100.00
2019-03-13T21:53:25.469Z,100.00
2019-03-13T21:55:51.278Z,100.00
2019-03-13T21:58:58.821Z,100.00
2019-03-13T22:01:24.697Z,100.00
2019-03-13T22:03:50.541Z,100.00
2019-03-13T22:06:28.236Z,100.00
2019-03-13T22:08:44.151Z,100.00
2019-03-13T22:11:10.084Z,100.00
2019-03-13T22:13:35.951Z,100.00
2019-03-13T22:16:01.805Z,100.00
2019-03-13T22:18:27.680Z,100.00
2019-03-13T22:20:53.556Z,100.00
2019-03-13T22:23:19.461Z,100.00
2019-03-13T22:25:45.495Z,100.00
2019-03-13T22:28:11.399Z,100.00
2019-03-13T22:30:37.273Z,100.00
2019-03-13T22:33:03.136Z,100.00
2019-03-13T22:35:28.987Z,100.00
2019-03-13T22:37:54.878Z,100.00
2019-03-13T22:40:20.843Z,100.00
2019-03-13T22:42:46.853Z,100.00
2019-03-13T22:45:20.618Z,100.00
2019-03-13T22:47:46.561Z,100.00
2019-03-13T22:50:16.936Z,100.00
2019-03-13T22:52:42.926Z,100.00
2019-03-13T22:55:09.030Z,100.00
2019-03-13T22:57:34.986Z,100.00
2019-03-13T23:00:00.872Z,100.00
2019-03-13T23:02:26.808Z,100.00
2019-03-13T23:04:52.630Z,100.00
2019-03-13T23:07:18.524Z,100.00
2019-03-13T23:09:44.387Z,100.00
2019-03-13T23:12:10.332Z,100.00
2019-03-13T23:14:36.164Z,100.00
2019-03-13T23:17:02.142Z,100.00
2019-03-13T23:19:28.110Z,100.00
2019-03-13T23:21:54.562Z,100.00
2019-03-13T23:24:20.461Z,100.00
2019-03-13T23:26:46.326Z,100.00
2019-03-13T23:29:12.195Z,100.00
2019-03-13T23:31:38.190Z,100.00
2019-03-13T23:34:04.364Z,100.00
2019-03-13T23:36:30.237Z,100.00
2019-03-13T23:38:56.066Z,100.00
2019-03-13T23:41:21.964Z,100.00
2019-03-13T23:43:47.810Z,100.00
2019-03-13T23:46:13.708Z,100.00
2019-03-13T23:48:39.564Z,100.00
2019-03-13T23:51:05.437Z,100.00
2019-03-13T23:53:31.325Z,100.00
2019-03-13T23:55:57.211Z,100.00
2019-03-13T23:58:23.086Z,100.00
